G.commander — DSQR5 — position and weather

sailwx.info

Track history (hours):
 
Tides and Currents Weather Stations Pressure Air Temp Water Temp Dewpoint Dewpoint Depression Visibility Wind Speed Wind Dir Waves Ship Positions

G.commander

Last reported at 2014-Aug-22 18:17 UTC. Time now 2014-Aug-27 15:11 UTC.
Position N 34°29' E 138°31'.

Length 230 m; draft 8.5 m.

Type: Tanker. MMSI: 441681000.

Date/timePositionNaut miles runAvg speedWind from/ knotsBaromVisibWave heightAir tempDewpointWater temp
2014-Aug-22 18:17N 34°29' E 138°31'3114.3
2014-Aug-22 16:06N 34°32' E 139°08'1313.9
2014-Aug-22 15:08N 34°37' E 139°24'813.4
2014-Aug-22 14:33N 34°40' E 139°32'1414.0
2014-Aug-22 13:33N 34°46' E 139°48'1413.9
2014-Aug-22 12:34N 34°52' E 140°03'1313.3
2014-Aug-22 11:33N 34°58' E 140°18'1312.8
2014-Aug-22 10:31N 35°05' E 140°31'1414.0
2014-Aug-22 09:33N 35°16' E 140°41'1515.0
2014-Aug-22 08:33N 35°27' E 140°53'1414.2
2014-Aug-22 07:33N 35°40' E 141°01'1414.2
2014-Aug-22 06:32N 35°53' E 140°51'8 8.4
2014-Aug-22 05:33N 35°57' E 140°42'1 0.1
2014-Aug-21 04:33N 35°56' E 140°42'4 3.7
2014-Aug-21 03:33N 35°59' E 140°44'7 6.5
2014-Aug-21 02:33N 35°58' E 140°52'0 0.4
2014-Aug-21 01:28N 35°58' E 140°53'6 6.4
2014-Aug-21 00:33N 35°53' E 140°57'1613.7
2014-Aug-20 23:25N 35°38' E 141°02'1314.8
2014-Aug-20 22:32N 35°26' E 140°57'3315.6
2014-Aug-20 20:24N 34°57' E 140°36'1517.9
2014-Aug-20 19:33N 34°47' E 140°23'1919.1
2014-Aug-20 18:33N 34°37' E 140°03'2017.4
2014-Aug-20 17:24N 34°24' E 139°45'  
2014-Aug-13 02:33N 01°14' E 104°02'8 8.0
2014-Aug-13 01:30N 01°12' E 103°54'8 8.1
2014-Aug-13 00:32N 01°09' E 103°47'  
Track history (hours):
 
Tides and Currents Weather Stations Pressure Air Temp Water Temp Dewpoint Dewpoint Depression Visibility Wind Speed Wind Dir Waves Ship Positions

G.commander

Last reported at 2014-Aug-22 18:17 UTC. Time now 2014-Aug-27 15:11 UTC.
Position N 34°29' E 138°31'.

Length 230 m; draft 8.5 m.

Type: Tanker. MMSI: 441681000.

Date/timePositionNaut miles runAvg speedWind from/ knotsBaromVisibWave heightAir tempDewpointWater temp
2014-Aug-22 18:17N 34°29' E 138°31'3114.3
2014-Aug-22 16:06N 34°32' E 139°08'1313.9
2014-Aug-22 15:08N 34°37' E 139°24'813.4
2014-Aug-22 14:33N 34°40' E 139°32'1414.0
2014-Aug-22 13:33N 34°46' E 139°48'1413.9
2014-Aug-22 12:34N 34°52' E 140°03'1313.3
2014-Aug-22 11:33N 34°58' E 140°18'1312.8
2014-Aug-22 10:31N 35°05' E 140°31'1414.0
2014-Aug-22 09:33N 35°16' E 140°41'1515.0
2014-Aug-22 08:33N 35°27' E 140°53'1414.2
2014-Aug-22 07:33N 35°40' E 141°01'1414.2
2014-Aug-22 06:32N 35°53' E 140°51'8 8.4
2014-Aug-22 05:33N 35°57' E 140°42'1 0.1
2014-Aug-21 04:33N 35°56' E 140°42'4 3.7
2014-Aug-21 03:33N 35°59' E 140°44'7 6.5
2014-Aug-21 02:33N 35°58' E 140°52'0 0.4
2014-Aug-21 01:28N 35°58' E 140°53'6 6.4
2014-Aug-21 00:33N 35°53' E 140°57'1613.7
2014-Aug-20 23:25N 35°38' E 141°02'1314.8
2014-Aug-20 22:32N 35°26' E 140°57'3315.6
2014-Aug-20 20:24N 34°57' E 140°36'1517.9
2014-Aug-20 19:33N 34°47' E 140°23'1919.1
2014-Aug-20 18:33N 34°37' E 140°03'2017.4
2014-Aug-20 17:24N 34°24' E 139°45'  
2014-Aug-13 02:33N 01°14' E 104°02'8 8.0
2014-Aug-13 01:30N 01°12' E 103°54'8 8.1
2014-Aug-13 00:32N 01°09' E 103°47'  

Dump ship's entire track history